sensor_id;sensor_type;location;lat;lon;timestamp;P1;durP1;ratioP1;P2;durP2;ratioP2
70150;SDS011;57517;43.562;19.540;2023-12-29T00:01:58;63.40;;;40.90;;
70150;SDS011;57517;43.562;19.540;2023-12-29T00:04:26;65.32;;;38.92;;
70150;SDS011;57517;43.562;19.540;2023-12-29T00:06:52;56.90;;;37.65;;
70150;SDS011;57517;43.562;19.540;2023-12-29T00:09:17;126.75;;;47.92;;
70150;SDS011;57517;43.562;19.540;2023-12-29T00:11:49;110.15;;;42.05;;
70150;SDS011;57517;43.562;19.540;2023-12-29T00:14:16;90.85;;;40.95;;
70150;SDS011;57517;43.562;19.540;2023-12-29T00:16:42;54.53;;;35.90;;
70150;SDS011;57517;43.562;19.540;2023-12-29T00:19:09;54.88;;;35.45;;
70150;SDS011;57517;43.562;19.540;2023-12-29T00:21:36;59.30;;;40.60;;
70150;SDS011;57517;43.562;19.540;2023-12-29T00:24:01;64.32;;;44.05;;
70150;SDS011;57517;43.562;19.540;2023-12-29T00:26:27;50.00;;;34.72;;
70150;SDS011;57517;43.562;19.540;2023-12-29T00:28:54;61.95;;;35.53;;
70150;SDS011;57517;43.562;19.540;2023-12-29T00:31:20;65.25;;;38.08;;
70150;SDS011;57517;43.562;19.540;2023-12-29T00:33:46;56.15;;;34.60;;
70150;SDS011;57517;43.562;19.540;2023-12-29T00:36:15;50.03;;;31.80;;
70150;SDS011;57517;43.562;19.540;2023-12-29T00:38:41;55.15;;;36.30;;
70150;SDS011;57517;43.562;19.540;2023-12-29T00:41:07;52.25;;;35.45;;
70150;SDS011;57517;43.562;19.540;2023-12-29T00:43:34;57.00;;;35.95;;
70150;SDS011;57517;43.562;19.540;2023-12-29T00:46:03;50.33;;;34.25;;
70150;SDS011;57517;43.562;19.540;2023-12-29T00:48:30;63.72;;;40.00;;
70150;SDS011;57517;43.562;19.540;2023-12-29T00:50:56;58.83;;;36.15;;
70150;SDS011;57517;43.562;19.540;2023-12-29T00:53:22;56.92;;;33.70;;
70150;SDS011;57517;43.562;19.540;2023-12-29T00:55:48;76.97;;;36.40;;
70150;SDS011;57517;43.562;19.540;2023-12-29T00:58:13;45.92;;;31.30;;
70150;SDS011;57517;43.562;19.540;2023-12-29T01:00:39;50.15;;;31.27;;
70150;SDS011;57517;43.562;19.540;2023-12-29T01:03:05;42.10;;;30.17;;
70150;SDS011;57517;43.562;19.540;2023-12-29T01:05:31;51.30;;;31.35;;
70150;SDS011;57517;43.562;19.540;2023-12-29T01:07:57;44.55;;;31.45;;
70150;SDS011;57517;43.562;19.540;2023-12-29T01:10:22;47.65;;;31.02;;
70150;SDS011;57517;43.562;19.540;2023-12-29T01:12:48;54.25;;;32.05;;
70150;SDS011;57517;43.562;19.540;2023-12-29T01:15:14;54.25;;;34.22;;
70150;SDS011;57517;43.562;19.540;2023-12-29T01:17:40;48.00;;;32.72;;
70150;SDS011;57517;43.562;19.540;2023-12-29T01:20:06;44.58;;;28.65;;
70150;SDS011;57517;43.562;19.540;2023-12-29T01:22:32;34.78;;;25.70;;
70150;SDS011;57517;43.562;19.540;2023-12-29T01:24:59;39.35;;;28.25;;
70150;SDS011;57517;43.562;19.540;2023-12-29T01:27:25;47.50;;;29.33;;
70150;SDS011;57517;43.562;19.540;2023-12-29T01:29:51;44.22;;;29.23;;
70150;SDS011;57517;43.562;19.540;2023-12-29T01:32:18;39.70;;;26.77;;
70150;SDS011;57517;43.562;19.540;2023-12-29T01:34:44;37.35;;;25.98;;
70150;SDS011;57517;43.562;19.540;2023-12-29T01:37:10;38.80;;;26.00;;
70150;SDS011;57517;43.562;19.540;2023-12-29T01:39:36;41.30;;;26.23;;
70150;SDS011;57517;43.562;19.540;2023-12-29T01:42:01;45.45;;;27.95;;
70150;SDS011;57517;43.562;19.540;2023-12-29T01:44:27;47.05;;;28.63;;
70150;SDS011;57517;43.562;19.540;2023-12-29T01:46:54;36.03;;;25.05;;
70150;SDS011;57517;43.562;19.540;2023-12-29T01:49:23;37.03;;;23.45;;
70150;SDS011;57517;43.562;19.540;2023-12-29T01:51:50;35.88;;;24.73;;
70150;SDS011;57517;43.562;19.540;2023-12-29T01:54:23;37.97;;;26.55;;
70150;SDS011;57517;43.562;19.540;2023-12-29T01:56:50;37.67;;;25.35;;
70150;SDS011;57517;43.562;19.540;2023-12-29T01:59:20;36.83;;;24.55;;
70150;SDS011;57517;43.562;19.540;2023-12-29T02:01:46;36.72;;;25.65;;
70150;SDS011;57517;43.562;19.540;2023-12-29T02:04:12;36.33;;;24.90;;
70150;SDS011;57517;43.562;19.540;2023-12-29T02:06:39;37.38;;;23.20;;
70150;SDS011;57517;43.562;19.540;2023-12-29T02:09:06;34.65;;;23.23;;
70150;SDS011;57517;43.562;19.540;2023-12-29T02:11:33;39.05;;;25.38;;
70150;SDS011;57517;43.562;19.540;2023-12-29T02:13:59;38.35;;;25.92;;
70150;SDS011;57517;43.562;19.540;2023-12-29T02:16:38;37.38;;;26.67;;
70150;SDS011;57517;43.562;19.540;2023-12-29T02:19:20;36.97;;;25.90;;
70150;SDS011;57517;43.562;19.540;2023-12-29T02:21:52;41.17;;;25.27;;
70150;SDS011;57517;43.562;19.540;2023-12-29T02:24:18;43.33;;;25.27;;
70150;SDS011;57517;43.562;19.540;2023-12-29T02:26:44;41.65;;;25.27;;
70150;SDS011;57517;43.562;19.540;2023-12-29T02:29:15;40.40;;;25.35;;
70150;SDS011;57517;43.562;19.540;2023-12-29T02:31:44;36.53;;;26.73;;
70150;SDS011;57517;43.562;19.540;2023-12-29T02:34:15;40.15;;;24.80;;
70150;SDS011;57517;43.562;19.540;2023-12-29T02:36:44;40.63;;;26.45;;
70150;SDS011;57517;43.562;19.540;2023-12-29T02:39:11;42.70;;;24.92;;
70150;SDS011;57517;43.562;19.540;2023-12-29T02:41:37;38.20;;;25.02;;
70150;SDS011;57517;43.562;19.540;2023-12-29T02:44:04;38.00;;;24.95;;
70150;SDS011;57517;43.562;19.540;2023-12-29T02:46:30;37.83;;;25.08;;
70150;SDS011;57517;43.562;19.540;2023-12-29T02:48:56;33.22;;;23.65;;
70150;SDS011;57517;43.562;19.540;2023-12-29T02:51:21;33.80;;;23.30;;
70150;SDS011;57517;43.562;19.540;2023-12-29T02:53:47;37.67;;;23.58;;
70150;SDS011;57517;43.562;19.540;2023-12-29T02:56:14;33.58;;;22.85;;
70150;SDS011;57517;43.562;19.540;2023-12-29T02:58:40;33.58;;;23.10;;
70150;SDS011;57517;43.562;19.540;2023-12-29T03:01:05;29.65;;;22.30;;
70150;SDS011;57517;43.562;19.540;2023-12-29T03:03:31;38.05;;;23.92;;
70150;SDS011;57517;43.562;19.540;2023-12-29T03:05:57;32.95;;;22.52;;
70150;SDS011;57517;43.562;19.540;2023-12-29T03:08:23;36.28;;;22.80;;
70150;SDS011;57517;43.562;19.540;2023-12-29T03:10:49;33.63;;;22.40;;
70150;SDS011;57517;43.562;19.540;2023-12-29T03:13:14;34.97;;;23.30;;
70150;SDS011;57517;43.562;19.540;2023-12-29T03:15:40;35.80;;;23.58;;
70150;SDS011;57517;43.562;19.540;2023-12-29T03:18:06;37.30;;;24.27;;
70150;SDS011;57517;43.562;19.540;2023-12-29T03:20:32;40.70;;;23.77;;
70150;SDS011;57517;43.562;19.540;2023-12-29T03:22:58;35.72;;;22.90;;
70150;SDS011;57517;43.562;19.540;2023-12-29T03:25:23;33.28;;;23.10;;
70150;SDS011;57517;43.562;19.540;2023-12-29T03:27:49;39.35;;;25.25;;
70150;SDS011;57517;43.562;19.540;2023-12-29T03:30:15;37.25;;;24.80;;
70150;SDS011;57517;43.562;19.540;2023-12-29T03:32:41;36.17;;;24.08;;
70150;SDS011;57517;43.562;19.540;2023-12-29T03:35:06;36.75;;;24.45;;
70150;SDS011;57517;43.562;19.540;2023-12-29T03:37:32;41.92;;;24.50;;
70150;SDS011;57517;43.562;19.540;2023-12-29T03:39:58;33.95;;;22.40;;
70150;SDS011;57517;43.562;19.540;2023-12-29T03:42:24;35.72;;;23.73;;
70150;SDS011;57517;43.562;19.540;2023-12-29T03:44:50;35.97;;;23.13;;
70150;SDS011;57517;43.562;19.540;2023-12-29T03:47:15;36.75;;;25.17;;
70150;SDS011;57517;43.562;19.540;2023-12-29T03:49:41;38.08;;;22.95;;
70150;SDS011;57517;43.562;19.540;2023-12-29T03:52:07;35.42;;;22.80;;
70150;SDS011;57517;43.562;19.540;2023-12-29T03:54:33;34.42;;;22.15;;
70150;SDS011;57517;43.562;19.540;2023-12-29T03:56:58;35.75;;;23.35;;
70150;SDS011;57517;43.562;19.540;2023-12-29T03:59:24;28.08;;;20.83;;
70150;SDS011;57517;43.562;19.540;2023-12-29T04:01:50;32.95;;;21.13;;
70150;SDS011;57517;43.562;19.540;2023-12-29T04:04:16;29.88;;;20.20;;
70150;SDS011;57517;43.562;19.540;2023-12-29T04:06:41;29.50;;;19.15;;
70150;SDS011;57517;43.562;19.540;2023-12-29T04:09:07;29.58;;;19.35;;
70150;SDS011;57517;43.562;19.540;2023-12-29T04:11:33;32.08;;;20.80;;
70150;SDS011;57517;43.562;19.540;2023-12-29T04:13:58;32.15;;;21.25;;
70150;SDS011;57517;43.562;19.540;2023-12-29T04:16:24;31.60;;;20.40;;
70150;SDS011;57517;43.562;19.540;2023-12-29T04:18:50;27.45;;;19.38;;
70150;SDS011;57517;43.562;19.540;2023-12-29T04:21:16;30.10;;;20.95;;
70150;SDS011;57517;43.562;19.540;2023-12-29T04:23:42;29.80;;;20.08;;
70150;SDS011;57517;43.562;19.540;2023-12-29T04:26:08;31.92;;;20.33;;
70150;SDS011;57517;43.562;19.540;2023-12-29T04:28:33;28.42;;;19.63;;
70150;SDS011;57517;43.562;19.540;2023-12-29T04:30:59;32.28;;;21.63;;
70150;SDS011;57517;43.562;19.540;2023-12-29T04:33:25;33.20;;;21.50;;
70150;SDS011;57517;43.562;19.540;2023-12-29T04:35:51;31.05;;;21.52;;
70150;SDS011;57517;43.562;19.540;2023-12-29T04:38:16;31.50;;;21.55;;
70150;SDS011;57517;43.562;19.540;2023-12-29T04:40:45;36.45;;;22.30;;
70150;SDS011;57517;43.562;19.540;2023-12-29T04:43:12;31.98;;;22.80;;
70150;SDS011;57517;43.562;19.540;2023-12-29T04:45:38;32.05;;;21.17;;
70150;SDS011;57517;43.562;19.540;2023-12-29T04:48:04;30.27;;;20.88;;
70150;SDS011;57517;43.562;19.540;2023-12-29T04:50:30;33.38;;;22.15;;
70150;SDS011;57517;43.562;19.540;2023-12-29T04:52:55;34.53;;;22.35;;
70150;SDS011;57517;43.562;19.540;2023-12-29T04:55:21;30.15;;;20.85;;
70150;SDS011;57517;43.562;19.540;2023-12-29T04:57:47;31.73;;;21.40;;
70150;SDS011;57517;43.562;19.540;2023-12-29T05:00:13;28.17;;;19.58;;
70150;SDS011;57517;43.562;19.540;2023-12-29T05:02:39;24.90;;;17.65;;
70150;SDS011;57517;43.562;19.540;2023-12-29T05:05:05;27.98;;;19.50;;
70150;SDS011;57517;43.562;19.540;2023-12-29T05:07:31;35.38;;;23.05;;
70150;SDS011;57517;43.562;19.540;2023-12-29T05:09:56;29.65;;;20.08;;
70150;SDS011;57517;43.562;19.540;2023-12-29T05:12:22;28.35;;;19.63;;
70150;SDS011;57517;43.562;19.540;2023-12-29T05:14:48;29.13;;;19.95;;
70150;SDS011;57517;43.562;19.540;2023-12-29T05:17:14;30.48;;;19.85;;
70150;SDS011;57517;43.562;19.540;2023-12-29T05:19:39;30.30;;;21.30;;
70150;SDS011;57517;43.562;19.540;2023-12-29T05:22:05;30.33;;;20.17;;
70150;SDS011;57517;43.562;19.540;2023-12-29T05:24:31;32.75;;;21.23;;
70150;SDS011;57517;43.562;19.540;2023-12-29T05:26:57;31.13;;;21.38;;
70150;SDS011;57517;43.562;19.540;2023-12-29T05:29:23;31.00;;;20.95;;
70150;SDS011;57517;43.562;19.540;2023-12-29T05:31:48;34.42;;;23.30;;
70150;SDS011;57517;43.562;19.540;2023-12-29T05:34:15;39.75;;;25.20;;
70150;SDS011;57517;43.562;19.540;2023-12-29T05:36:40;37.50;;;25.45;;
70150;SDS011;57517;43.562;19.540;2023-12-29T05:39:07;32.25;;;22.77;;
70150;SDS011;57517;43.562;19.540;2023-12-29T05:41:33;30.17;;;21.20;;
70150;SDS011;57517;43.562;19.540;2023-12-29T05:43:58;33.60;;;22.25;;
70150;SDS011;57517;43.562;19.540;2023-12-29T05:46:25;35.53;;;22.17;;
70150;SDS011;57517;43.562;19.540;2023-12-29T05:48:51;34.78;;;22.08;;
70150;SDS011;57517;43.562;19.540;2023-12-29T05:51:17;35.05;;;23.20;;
70150;SDS011;57517;43.562;19.540;2023-12-29T05:53:43;33.25;;;24.40;;
70150;SDS011;57517;43.562;19.540;2023-12-29T05:56:11;34.30;;;24.15;;
70150;SDS011;57517;43.562;19.540;2023-12-29T05:58:40;36.40;;;23.67;;
70150;SDS011;57517;43.562;19.540;2023-12-29T06:01:10;32.58;;;23.75;;
70150;SDS011;57517;43.562;19.540;2023-12-29T06:03:36;34.30;;;24.33;;
70150;SDS011;57517;43.562;19.540;2023-12-29T06:06:02;28.45;;;21.75;;
70150;SDS011;57517;43.562;19.540;2023-12-29T06:08:28;29.02;;;19.85;;
70150;SDS011;57517;43.562;19.540;2023-12-29T06:10:54;35.15;;;21.83;;
70150;SDS011;57517;43.562;19.540;2023-12-29T06:13:20;33.38;;;22.70;;
70150;SDS011;57517;43.562;19.540;2023-12-29T06:15:46;34.78;;;22.90;;
70150;SDS011;57517;43.562;19.540;2023-12-29T06:18:11;34.95;;;22.83;;
70150;SDS011;57517;43.562;19.540;2023-12-29T06:20:37;39.67;;;21.65;;
70150;SDS011;57517;43.562;19.540;2023-12-29T06:23:03;34.40;;;21.75;;
70150;SDS011;57517;43.562;19.540;2023-12-29T06:25:29;37.67;;;22.70;;
70150;SDS011;57517;43.562;19.540;2023-12-29T06:27:55;34.25;;;23.98;;
70150;SDS011;57517;43.562;19.540;2023-12-29T06:30:21;31.60;;;21.70;;
70150;SDS011;57517;43.562;19.540;2023-12-29T06:32:46;38.42;;;25.42;;
70150;SDS011;57517;43.562;19.540;2023-12-29T06:35:12;34.83;;;24.85;;
70150;SDS011;57517;43.562;19.540;2023-12-29T06:37:38;41.05;;;26.52;;
70150;SDS011;57517;43.562;19.540;2023-12-29T06:40:08;36.75;;;25.70;;
70150;SDS011;57517;43.562;19.540;2023-12-29T06:42:34;40.88;;;26.60;;
70150;SDS011;57517;43.562;19.540;2023-12-29T06:45:00;37.92;;;25.23;;
70150;SDS011;57517;43.562;19.540;2023-12-29T06:47:26;37.83;;;25.83;;
70150;SDS011;57517;43.562;19.540;2023-12-29T06:49:52;37.63;;;26.35;;
70150;SDS011;57517;43.562;19.540;2023-12-29T06:52:18;37.15;;;26.73;;
70150;SDS011;57517;43.562;19.540;2023-12-29T06:54:44;44.25;;;29.15;;
70150;SDS011;57517;43.562;19.540;2023-12-29T06:57:09;36.10;;;24.85;;
70150;SDS011;57517;43.562;19.540;2023-12-29T06:59:35;42.60;;;30.10;;
70150;SDS011;57517;43.562;19.540;2023-12-29T07:02:02;70.60;;;50.85;;
70150;SDS011;57517;43.562;19.540;2023-12-29T07:04:28;52.40;;;35.15;;
70150;SDS011;57517;43.562;19.540;2023-12-29T07:06:53;42.63;;;29.73;;
70150;SDS011;57517;43.562;19.540;2023-12-29T07:09:19;34.90;;;23.92;;
70150;SDS011;57517;43.562;19.540;2023-12-29T07:11:48;37.63;;;23.65;;
70150;SDS011;57517;43.562;19.540;2023-12-29T07:14:15;36.08;;;23.25;;
70150;SDS011;57517;43.562;19.540;2023-12-29T07:16:41;29.52;;;22.63;;
70150;SDS011;57517;43.562;19.540;2023-12-29T07:19:06;31.23;;;22.20;;
70150;SDS011;57517;43.562;19.540;2023-12-29T07:21:32;32.28;;;22.58;;
70150;SDS011;57517;43.562;19.540;2023-12-29T07:23:59;36.47;;;23.60;;
70150;SDS011;57517;43.562;19.540;2023-12-29T07:26:25;39.85;;;23.90;;
70150;SDS011;57517;43.562;19.540;2023-12-29T07:28:50;115.63;;;103.43;;
70150;SDS011;57517;43.562;19.540;2023-12-29T07:31:19;45.58;;;34.13;;
70150;SDS011;57517;43.562;19.540;2023-12-29T07:33:46;42.58;;;34.33;;
70150;SDS011;57517;43.562;19.540;2023-12-29T07:36:12;39.10;;;29.00;;
70150;SDS011;57517;43.562;19.540;2023-12-29T07:38:37;33.53;;;22.45;;
70150;SDS011;57517;43.562;19.540;2023-12-29T07:41:03;38.58;;;25.08;;
70150;SDS011;57517;43.562;19.540;2023-12-29T07:43:30;36.47;;;23.27;;
70150;SDS011;57517;43.562;19.540;2023-12-29T07:45:57;40.97;;;26.08;;
70150;SDS011;57517;43.562;19.540;2023-12-29T07:48:22;37.33;;;24.55;;
70150;SDS011;57517;43.562;19.540;2023-12-29T07:50:48;40.63;;;28.45;;
70150;SDS011;57517;43.562;19.540;2023-12-29T07:53:14;40.42;;;26.05;;
70150;SDS011;57517;43.562;19.540;2023-12-29T07:55:42;43.53;;;29.85;;
70150;SDS011;57517;43.562;19.540;2023-12-29T07:58:08;37.35;;;24.98;;
70150;SDS011;57517;43.562;19.540;2023-12-29T08:00:35;47.33;;;34.13;;
70150;SDS011;57517;43.562;19.540;2023-12-29T08:03:02;70.75;;;40.17;;
70150;SDS011;57517;43.562;19.540;2023-12-29T08:05:28;40.83;;;27.85;;
70150;SDS011;57517;43.562;19.540;2023-12-29T08:07:54;40.05;;;27.35;;
70150;SDS011;57517;43.562;19.540;2023-12-29T08:10:20;40.03;;;23.67;;
70150;SDS011;57517;43.562;19.540;2023-12-29T08:12:45;37.20;;;25.38;;
70150;SDS011;57517;43.562;19.540;2023-12-29T08:15:11;41.63;;;26.17;;
70150;SDS011;57517;43.562;19.540;2023-12-29T08:17:37;40.17;;;28.48;;
70150;SDS011;57517;43.562;19.540;2023-12-29T08:20:03;40.03;;;27.80;;
70150;SDS011;57517;43.562;19.540;2023-12-29T08:22:30;46.33;;;29.30;;
70150;SDS011;57517;43.562;19.540;2023-12-29T08:24:57;47.50;;;30.90;;
70150;SDS011;57517;43.562;19.540;2023-12-29T08:27:25;41.35;;;27.48;;
70150;SDS011;57517;43.562;19.540;2023-12-29T08:29:51;42.85;;;28.90;;
70150;SDS011;57517;43.562;19.540;2023-12-29T08:32:17;64.25;;;41.60;;
70150;SDS011;57517;43.562;19.540;2023-12-29T08:34:43;63.83;;;40.35;;
70150;SDS011;57517;43.562;19.540;2023-12-29T08:37:09;52.42;;;38.45;;
70150;SDS011;57517;43.562;19.540;2023-12-29T08:39:35;49.05;;;35.10;;
70150;SDS011;57517;43.562;19.540;2023-12-29T08:42:01;67.65;;;44.15;;
70150;SDS011;57517;43.562;19.540;2023-12-29T08:44:27;52.72;;;32.72;;
70150;SDS011;57517;43.562;19.540;2023-12-29T08:46:52;50.53;;;37.67;;
70150;SDS011;57517;43.562;19.540;2023-12-29T08:49:18;46.75;;;32.15;;
70150;SDS011;57517;43.562;19.540;2023-12-29T08:51:45;42.28;;;32.13;;
70150;SDS011;57517;43.562;19.540;2023-12-29T08:54:10;45.58;;;31.15;;
70150;SDS011;57517;43.562;19.540;2023-12-29T08:56:36;52.35;;;33.45;;
70150;SDS011;57517;43.562;19.540;2023-12-29T08:59:02;51.70;;;34.35;;
70150;SDS011;57517;43.562;19.540;2023-12-29T09:01:28;48.30;;;32.35;;
70150;SDS011;57517;43.562;19.540;2023-12-29T09:03:54;49.90;;;34.17;;
70150;SDS011;57517;43.562;19.540;2023-12-29T09:06:20;47.55;;;28.83;;
70150;SDS011;57517;43.562;19.540;2023-12-29T09:08:45;42.10;;;27.38;;
70150;SDS011;57517;43.562;19.540;2023-12-29T09:11:11;54.25;;;30.45;;
70150;SDS011;57517;43.562;19.540;2023-12-29T09:13:37;44.92;;;26.83;;
70150;SDS011;57517;43.562;19.540;2023-12-29T09:16:03;45.05;;;27.83;;
70150;SDS011;57517;43.562;19.540;2023-12-29T09:18:29;40.17;;;28.63;;
70150;SDS011;57517;43.562;19.540;2023-12-29T09:20:55;36.42;;;24.75;;
70150;SDS011;57517;43.562;19.540;2023-12-29T09:23:20;41.83;;;27.48;;
70150;SDS011;57517;43.562;19.540;2023-12-29T09:25:46;36.75;;;23.48;;
70150;SDS011;57517;43.562;19.540;2023-12-29T09:28:12;40.42;;;26.40;;
70150;SDS011;57517;43.562;19.540;2023-12-29T09:30:38;44.25;;;27.63;;
70150;SDS011;57517;43.562;19.540;2023-12-29T09:33:04;38.25;;;26.65;;
70150;SDS011;57517;43.562;19.540;2023-12-29T09:35:30;36.40;;;24.65;;
70150;SDS011;57517;43.562;19.540;2023-12-29T09:37:57;40.88;;;25.70;;
70150;SDS011;57517;43.562;19.540;2023-12-29T09:40:24;40.10;;;27.00;;
70150;SDS011;57517;43.562;19.540;2023-12-29T09:42:51;39.10;;;24.95;;
70150;SDS011;57517;43.562;19.540;2023-12-29T09:45:19;39.53;;;24.25;;
70150;SDS011;57517;43.562;19.540;2023-12-29T09:47:50;34.92;;;23.48;;
70150;SDS011;57517;43.562;19.540;2023-12-29T09:50:18;35.95;;;24.92;;
70150;SDS011;57517;43.562;19.540;2023-12-29T09:52:44;34.13;;;23.35;;
70150;SDS011;57517;43.562;19.540;2023-12-29T09:55:14;38.90;;;23.50;;
70150;SDS011;57517;43.562;19.540;2023-12-29T09:57:41;38.60;;;25.95;;
70150;SDS011;57517;43.562;19.540;2023-12-29T10:00:10;34.42;;;23.67;;
70150;SDS011;57517;43.562;19.540;2023-12-29T10:02:37;41.17;;;26.88;;
70150;SDS011;57517;43.562;19.540;2023-12-29T10:05:04;40.17;;;26.20;;
70150;SDS011;57517;43.562;19.540;2023-12-29T10:07:39;33.78;;;23.33;;
70150;SDS011;57517;43.562;19.540;2023-12-29T10:10:08;41.45;;;28.27;;
70150;SDS011;57517;43.562;19.540;2023-12-29T10:12:42;40.17;;;26.73;;
70150;SDS011;57517;43.562;19.540;2023-12-29T10:15:15;37.20;;;24.83;;
70150;SDS011;57517;43.562;19.540;2023-12-29T10:23:32;43.90;;;28.95;;
70150;SDS011;57517;43.562;19.540;2023-12-29T10:26:05;37.92;;;24.60;;
70150;SDS011;57517;43.562;19.540;2023-12-29T10:28:35;38.95;;;24.95;;
70150;SDS011;57517;43.562;19.540;2023-12-29T10:31:01;40.13;;;25.92;;
70150;SDS011;57517;43.562;19.540;2023-12-29T10:33:27;43.38;;;29.77;;
70150;SDS011;57517;43.562;19.540;2023-12-29T10:36:02;50.58;;;32.75;;
70150;SDS011;57517;43.562;19.540;2023-12-29T10:41:15;51.95;;;34.00;;
70150;SDS011;57517;43.562;19.540;2023-12-29T10:43:42;47.13;;;33.95;;
70150;SDS011;57517;43.562;19.540;2023-12-29T10:46:09;42.67;;;29.60;;
70150;SDS011;57517;43.562;19.540;2023-12-29T10:48:36;45.05;;;28.77;;
70150;SDS011;57517;43.562;19.540;2023-12-29T10:51:03;42.53;;;28.92;;
70150;SDS011;57517;43.562;19.540;2023-12-29T10:53:32;36.75;;;27.38;;
70150;SDS011;57517;43.562;19.540;2023-12-29T10:55:59;41.78;;;27.52;;
70150;SDS011;57517;43.562;19.540;2023-12-29T10:58:28;47.70;;;29.98;;
70150;SDS011;57517;43.562;19.540;2023-12-29T11:00:58;51.58;;;36.47;;
70150;SDS011;57517;43.562;19.540;2023-12-29T11:03:27;60.58;;;40.60;;
70150;SDS011;57517;43.562;19.540;2023-12-29T11:05:59;73.32;;;46.13;;
70150;SDS011;57517;43.562;19.540;2023-12-29T11:08:25;55.35;;;36.63;;
70150;SDS011;57517;43.562;19.540;2023-12-29T11:10:51;58.42;;;34.78;;
70150;SDS011;57517;43.562;19.540;2023-12-29T11:13:19;58.28;;;37.95;;
70150;SDS011;57517;43.562;19.540;2023-12-29T11:15:45;53.85;;;35.47;;
70150;SDS011;57517;43.562;19.540;2023-12-29T11:18:12;50.38;;;35.05;;
70150;SDS011;57517;43.562;19.540;2023-12-29T11:20:44;49.70;;;34.40;;
70150;SDS011;57517;43.562;19.540;2023-12-29T11:23:12;53.22;;;35.72;;
70150;SDS011;57517;43.562;19.540;2023-12-29T11:25:41;51.75;;;34.35;;
70150;SDS011;57517;43.562;19.540;2023-12-29T11:28:13;48.70;;;31.20;;
70150;SDS011;57517;43.562;19.540;2023-12-29T11:30:39;66.95;;;41.13;;
70150;SDS011;57517;43.562;19.540;2023-12-29T11:38:24;60.95;;;40.22;;
70150;SDS011;57517;43.562;19.540;2023-12-29T11:41:13;55.20;;;38.72;;
70150;SDS011;57517;43.562;19.540;2023-12-29T11:43:43;46.58;;;35.58;;
70150;SDS011;57517;43.562;19.540;2023-12-29T11:46:55;54.95;;;37.45;;
70150;SDS011;57517;43.562;19.540;2023-12-29T11:48:58;58.85;;;41.17;;
70150;SDS011;57517;43.562;19.540;2023-12-29T11:51:29;60.15;;;42.90;;
70150;SDS011;57517;43.562;19.540;2023-12-29T11:53:55;65.05;;;45.58;;
70150;SDS011;57517;43.562;19.540;2023-12-29T11:56:21;68.32;;;45.38;;
70150;SDS011;57517;43.562;19.540;2023-12-29T11:58:47;68.68;;;49.40;;
70150;SDS011;57517;43.562;19.540;2023-12-29T12:01:13;75.07;;;49.08;;
70150;SDS011;57517;43.562;19.540;2023-12-29T12:03:39;70.20;;;48.30;;
70150;SDS011;57517;43.562;19.540;2023-12-29T12:06:05;64.60;;;46.72;;
70150;SDS011;57517;43.562;19.540;2023-12-29T12:08:31;65.50;;;45.42;;
70150;SDS011;57517;43.562;19.540;2023-12-29T12:13:58;72.35;;;47.63;;
70150;SDS011;57517;43.562;19.540;2023-12-29T12:19:11;65.47;;;45.63;;
70150;SDS011;57517;43.562;19.540;2023-12-29T12:21:38;69.40;;;45.72;;
70150;SDS011;57517;43.562;19.540;2023-12-29T12:24:04;62.85;;;45.28;;
70150;SDS011;57517;43.562;19.540;2023-12-29T12:26:30;118.93;;;72.75;;
70150;SDS011;57517;43.562;19.540;2023-12-29T12:28:57;72.13;;;51.65;;
70150;SDS011;57517;43.562;19.540;2023-12-29T12:31:24;75.32;;;51.50;;
70150;SDS011;57517;43.562;19.540;2023-12-29T12:33:54;68.30;;;45.95;;
70150;SDS011;57517;43.562;19.540;2023-12-29T12:36:20;68.22;;;43.92;;
70150;SDS011;57517;43.562;19.540;2023-12-29T12:38:50;58.60;;;41.45;;
70150;SDS011;57517;43.562;19.540;2023-12-29T12:41:17;66.15;;;44.33;;
70150;SDS011;57517;43.562;19.540;2023-12-29T12:44:26;72.63;;;48.72;;
70150;SDS011;57517;43.562;19.540;2023-12-29T12:46:35;71.63;;;46.90;;
70150;SDS011;57517;43.562;19.540;2023-12-29T12:49:08;77.20;;;51.30;;
70150;SDS011;57517;43.562;19.540;2023-12-29T12:51:34;74.10;;;51.33;;
70150;SDS011;57517;43.562;19.540;2023-12-29T12:53:59;73.72;;;52.10;;
70150;SDS011;57517;43.562;19.540;2023-12-29T12:56:26;74.20;;;51.42;;
70150;SDS011;57517;43.562;19.540;2023-12-29T12:58:56;77.22;;;52.13;;
70150;SDS011;57517;43.562;19.540;2023-12-29T13:01:23;76.72;;;50.50;;
70150;SDS011;57517;43.562;19.540;2023-12-29T13:03:50;73.55;;;50.75;;
70150;SDS011;57517;43.562;19.540;2023-12-29T13:06:16;74.43;;;51.05;;
70150;SDS011;57517;43.562;19.540;2023-12-29T13:08:42;70.82;;;50.17;;
70150;SDS011;57517;43.562;19.540;2023-12-29T13:11:09;71.68;;;49.72;;
70150;SDS011;57517;43.562;19.540;2023-12-29T13:13:38;68.78;;;49.03;;
70150;SDS011;57517;43.562;19.540;2023-12-29T13:16:05;71.82;;;50.67;;
70150;SDS011;57517;43.562;19.540;2023-12-29T13:18:31;63.25;;;43.20;;
70150;SDS011;57517;43.562;19.540;2023-12-29T13:20:57;67.50;;;43.47;;
70150;SDS011;57517;43.562;19.540;2023-12-29T13:23:26;71.25;;;46.38;;
70150;SDS011;57517;43.562;19.540;2023-12-29T13:26:02;81.57;;;53.00;;
70150;SDS011;57517;43.562;19.540;2023-12-29T13:28:32;73.53;;;50.65;;
70150;SDS011;57517;43.562;19.540;2023-12-29T13:30:59;90.25;;;57.55;;
70150;SDS011;57517;43.562;19.540;2023-12-29T13:33:44;103.03;;;69.88;;
70150;SDS011;57517;43.562;19.540;2023-12-29T13:39:05;84.47;;;59.45;;
70150;SDS011;57517;43.562;19.540;2023-12-29T13:41:40;88.22;;;57.00;;
70150;SDS011;57517;43.562;19.540;2023-12-29T13:44:07;82.25;;;54.78;;
70150;SDS011;57517;43.562;19.540;2023-12-29T13:46:34;81.90;;;54.40;;
70150;SDS011;57517;43.562;19.540;2023-12-29T13:49:00;77.55;;;52.03;;
70150;SDS011;57517;43.562;19.540;2023-12-29T13:51:28;81.22;;;54.08;;
70150;SDS011;57517;43.562;19.540;2023-12-29T13:53:57;78.75;;;50.15;;
70150;SDS011;57517;43.562;19.540;2023-12-29T13:56:27;70.03;;;48.85;;
70150;SDS011;57517;43.562;19.540;2023-12-29T13:58:53;79.70;;;49.75;;
70150;SDS011;57517;43.562;19.540;2023-12-29T14:01:19;67.57;;;45.47;;
70150;SDS011;57517;43.562;19.540;2023-12-29T14:03:59;80.90;;;52.08;;
70150;SDS011;57517;43.562;19.540;2023-12-29T14:07:10;81.50;;;55.08;;
70150;SDS011;57517;43.562;19.540;2023-12-29T14:09:20;82.30;;;55.78;;
70150;SDS011;57517;43.562;19.540;2023-12-29T14:11:46;88.80;;;56.53;;
70150;SDS011;57517;43.562;19.540;2023-12-29T14:14:13;82.75;;;55.78;;
70150;SDS011;57517;43.562;19.540;2023-12-29T14:16:42;82.72;;;52.72;;
70150;SDS011;57517;43.562;19.540;2023-12-29T14:19:08;85.97;;;58.45;;
70150;SDS011;57517;43.562;19.540;2023-12-29T14:21:34;93.90;;;60.08;;
70150;SDS011;57517;43.562;19.540;2023-12-29T14:24:09;98.05;;;63.55;;
70150;SDS011;57517;43.562;19.540;2023-12-29T14:26:36;106.22;;;71.78;;
70150;SDS011;57517;43.562;19.540;2023-12-29T14:29:24;102.55;;;65.45;;
70150;SDS011;57517;43.562;19.540;2023-12-29T14:31:51;88.70;;;61.72;;